Time;durP1;ratioP1;P1;durP2;ratioP2;P2;SDS_P1;SDS_P2;PMS_P1;PMS_P2;Temp;Humidity;BMP_temperature;BMP_pressure;BME280_temperature;BME280_humidity;BME280_pressure;Samples;Min_cycle;Max_cycle;Signal;HPM_P1;HPM_P2
2023/09/29 00:01:12;;;;;;;;;;;17.90;99.90;;;;;;5070187;28;19971;-67
2023/09/29 00:03:40;;;;;;;;;;;17.90;99.90;;;;;;5060666;28;19965;-65
2023/09/29 00:06:08;;;;;;;;;;;17.90;99.90;;;;;;5052098;28;19967;-65
2023/09/29 00:08:36;;;;;;;;;;;18.00;99.90;;;;;;5057585;28;19962;-66
2023/09/29 00:11:03;;;;;;;;;;;18.00;99.90;;;;;;5063173;28;20388;-66
2023/09/29 00:13:31;;;;;;;;;;;17.90;99.90;;;;;;5089611;28;19962;-65
2023/09/29 00:15:59;;;;;;;;;;;17.90;99.90;;;;;;5082737;28;19970;-66
2023/09/29 00:18:30;;;;;;;;;;;17.90;99.90;;;;;;5056313;28;20012;-66
2023/09/29 00:20:57;;;;;;;;;;;17.80;99.90;;;;;;5063714;28;19968;-65
2023/09/29 00:23:25;;;;;;;;;;;17.80;99.90;;;;;;5052133;28;19959;-65
2023/09/29 00:25:53;;;;;;;;;;;17.80;99.90;;;;;;5052168;28;19969;-66
2023/09/29 00:28:21;;;;;;;;;;;17.80;99.90;;;;;;5060196;28;19963;-65
2023/09/29 00:30:49;;;;;;;;;;;17.70;99.90;;;;;;5058783;28;19966;-65
2023/09/29 00:33:17;;;;;;;;;;;17.70;99.90;;;;;;5061090;28;20008;-65
2023/09/29 00:35:47;;;;;;;;;;;17.70;99.90;;;;;;5060297;28;20058;-65
2023/09/29 00:38:15;;;;;;;;;;;17.70;99.90;;;;;;5062521;28;19963;-65
2023/09/29 00:40:43;;;;;;;;;;;17.60;99.90;;;;;;5063582;28;20054;-65
2023/09/29 00:43:11;;;;;;;;;;;17.60;99.90;;;;;;5084365;28;19990;-66
2023/09/29 00:45:38;;;;;;;;;;;17.60;99.90;;;;;;5073993;28;20441;-65
2023/09/29 00:48:10;;;;;;;;;;;17.60;99.90;;;;;;5061420;28;20002;-66
2023/09/29 00:50:38;;;;;;;;;;;17.60;99.90;;;;;;5063815;28;19958;-64
2023/09/29 00:53:11;;;;;;;;;;;17.60;99.90;;;;;;5062974;28;19962;-65
2023/09/29 00:55:41;;;;;;;;;;;17.60;99.90;;;;;;5060217;28;20054;-66
2023/09/29 00:58:09;;;;;;;;;;;17.60;99.90;;;;;;5061806;28;19962;-66
2023/09/29 01:00:40;;;;;;;;;;;17.50;99.90;;;;;;5058439;28;20411;-66
2023/09/29 01:03:09;;;;;;;;;;;17.60;99.90;;;;;;5060088;28;19970;-65
2023/09/29 01:05:39;;;;;;;;;;;17.50;99.90;;;;;;5060037;28;19966;-65
2023/09/29 01:08:09;;;;;;;;;;;17.50;99.90;;;;;;5061529;28;19997;-65
2023/09/29 01:10:37;;;;;;;;;;;17.50;99.90;;;;;;5063522;28;19958;-65
2023/09/29 01:13:05;;;;;;;;;;;17.40;99.90;;;;;;5083013;28;19962;-66
2023/09/29 01:15:34;;;;;;;;;;;17.50;99.90;;;;;;5085130;28;19963;-65
2023/09/29 01:18:02;;;;;;;;;;;17.50;99.90;;;;;;5055680;28;20054;-66
2023/09/29 01:20:30;;;;;;;;;;;17.50;99.90;;;;;;5063363;28;20421;-65
2023/09/29 01:23:00;;;;;;;;;;;17.50;99.90;;;;;;5063909;28;20020;-65
2023/09/29 01:25:29;;;;;;;;;;;17.60;99.90;;;;;;5056210;28;19959;-65
2023/09/29 01:27:57;;;;;;;;;;;17.60;99.90;;;;;;5055628;28;19967;-65
2023/09/29 01:30:25;;;;;;;;;;;17.60;99.90;;;;;;5055334;28;19970;-65
2023/09/29 01:32:57;;;;;;;;;;;17.60;99.90;;;;;;5058427;28;19970;-64
2023/09/29 01:35:27;;;;;;;;;;;17.70;99.90;;;;;;5060163;28;20066;-66
2023/09/29 01:37:58;;;;;;;;;;;17.60;99.90;;;;;;5060554;28;20380;-66
2023/09/29 01:40:27;;;;;;;;;;;17.60;99.90;;;;;;5056330;28;19962;-66
2023/09/29 01:42:57;;;;;;;;;;;17.60;99.90;;;;;;5086207;28;20023;-66
2023/09/29 01:45:26;;;;;;;;;;;17.60;99.90;;;;;;5089033;28;19966;-66
2023/09/29 01:47:54;;;;;;;;;;;17.50;99.90;;;;;;5060029;28;19967;-65
2023/09/29 01:50:22;;;;;;;;;;;17.60;99.90;;;;;;5058222;28;19967;-65
2023/09/29 01:52:51;;;;;;;;;;;17.50;99.90;;;;;;5067828;28;19981;-66
2023/09/29 01:55:22;;;;;;;;;;;17.50;99.90;;;;;;5065760;28;19963;-65
2023/09/29 01:57:52;;;;;;;;;;;17.50;99.90;;;;;;5064516;28;19958;-66
2023/09/29 02:00:23;;;;;;;;;;;17.40;99.90;;;;;;5067275;28;20490;-66
2023/09/29 02:02:52;;;;;;;;;;;17.50;99.90;;;;;;5067787;28;19958;-65
2023/09/29 02:05:20;;;;;;;;;;;17.50;99.90;;;;;;5059673;28;19969;-65
2023/09/29 02:07:49;;;;;;;;;;;17.50;99.90;;;;;;5066332;28;20472;-65
2023/09/29 02:10:19;;;;;;;;;;;17.40;99.90;;;;;;5064832;28;19963;-68
2023/09/29 02:12:49;;;;;;;;;;;17.40;99.90;;;;;;5072554;28;19958;-66
2023/09/29 02:15:17;;;;;;;;;;;17.50;99.90;;;;;;5090734;28;19969;-65
2023/09/29 02:17:47;;;;;;;;;;;17.40;99.90;;;;;;5061234;28;19960;-66
2023/09/29 02:20:17;;;;;;;;;;;17.40;99.90;;;;;;5061479;28;19962;-65
2023/09/29 02:22:45;;;;;;;;;;;17.40;99.90;;;;;;5061918;28;19959;-65
2023/09/29 02:25:15;;;;;;;;;;;17.40;99.90;;;;;;5064273;28;20024;-65
2023/09/29 02:27:43;;;;;;;;;;;17.40;99.90;;;;;;5054360;28;19965;-65
2023/09/29 02:30:11;;;;;;;;;;;17.50;99.90;;;;;;5054094;28;19963;-65
2023/09/29 02:32:41;;;;;;;;;;;17.50;99.90;;;;;;5058804;28;20054;-64
2023/09/29 02:35:11;;;;;;;;;;;17.60;99.90;;;;;;5053871;28;19973;-65
2023/09/29 02:37:39;;;;;;;;;;;17.70;99.90;;;;;;5055121;28;19966;-65
2023/09/29 02:40:13;;;;;;;;;;;17.60;99.90;;;;;;5054122;28;20367;-65
2023/09/29 02:42:40;;;;;;;;;;;17.70;99.90;;;;;;5077159;28;20402;-65
2023/09/29 02:45:09;;;;;;;;;;;17.80;99.90;;;;;;5085674;28;20064;-66
2023/09/29 02:47:38;;;;;;;;;;;17.80;99.90;;;;;;5062305;28;19974;-66
2023/09/29 02:50:06;;;;;;;;;;;17.80;99.90;;;;;;5054292;28;20013;-64
2023/09/29 02:52:35;;;;;;;;;;;17.80;99.90;;;;;;5052855;28;19959;-64
2023/09/29 02:55:05;;;;;;;;;;;17.90;99.90;;;;;;5055112;28;20364;-65
2023/09/29 02:57:33;;;;;;;;;;;17.90;99.90;;;;;;5062044;28;19970;-65
2023/09/29 03:00:11;;;;;;;;;;;17.90;99.90;;;;;;5054155;28;20013;-65
2023/09/29 03:02:39;;;;;;;;;;;18.00;99.90;;;;;;5053485;28;19966;-64
2023/09/29 03:05:08;;;;;;;;;;;18.00;99.90;;;;;;5053625;28;19997;-64
2023/09/29 03:07:38;;;;;;;;;;;18.00;99.90;;;;;;5053251;28;19959;-65
2023/09/29 03:10:07;;;;;;;;;;;18.10;99.90;;;;;;5053936;28;20002;-65
2023/09/29 03:12:36;;;;;;;;;;;18.10;99.90;;;;;;5074947;28;19965;-65
2023/09/29 03:15:06;;;;;;;;;;;18.10;99.90;;;;;;5093424;28;20009;-65
2023/09/29 03:17:34;;;;;;;;;;;18.10;99.90;;;;;;5062898;28;19992;-65
2023/09/29 03:20:10;;;;;;;;;;;18.10;99.90;;;;;;5053165;28;20073;-66
2023/09/29 03:22:39;;;;;;;;;;;18.10;99.90;;;;;;5052936;28;19959;-65
2023/09/29 03:25:09;;;;;;;;;;;18.10;99.90;;;;;;5062731;28;19969;-65
2023/09/29 03:27:38;;;;;;;;;;;18.10;99.90;;;;;;5060740;28;19962;-65
2023/09/29 03:30:08;;;;;;;;;;;18.10;99.90;;;;;;5053968;28;19963;-65
2023/09/29 03:32:36;;;;;;;;;;;18.20;99.90;;;;;;5052345;28;19967;-65
2023/09/29 03:35:05;;;;;;;;;;;18.30;99.90;;;;;;5052906;28;19994;-64
2023/09/29 03:37:36;;;;;;;;;;;18.30;99.90;;;;;;5052727;28;20013;-65
2023/09/29 03:40:08;;;;;;;;;;;18.30;99.90;;;;;;5053942;28;19963;-64
2023/09/29 03:42:36;;;;;;;;;;;18.30;99.90;;;;;;5062820;28;19959;-64
2023/09/29 03:45:06;;;;;;;;;;;18.30;99.90;;;;;;5061549;28;20065;-65
2023/09/29 03:47:34;;;;;;;;;;;18.30;99.90;;;;;;5061035;28;20020;-65
2023/09/29 03:50:04;;;;;;;;;;;18.30;99.90;;;;;;5053459;28;20496;-64
2023/09/29 03:52:33;;;;;;;;;;;18.30;99.90;;;;;;5052177;28;20046;-65
2023/09/29 03:55:00;;;;;;;;;;;18.30;99.90;;;;;;5058852;28;19963;-65
2023/09/29 03:57:29;;;;;;;;;;;18.30;99.90;;;;;;5052618;28;19966;-64
2023/09/29 04:00:11;;;;;;;;;;;18.40;99.90;;;;;;5052714;28;19962;-66
2023/09/29 04:02:40;;;;;;;;;;;18.40;99.90;;;;;;5059956;28;19967;-66
2023/09/29 04:05:09;;;;;;;;;;;18.40;99.90;;;;;;5065351;28;19969;-64
2023/09/29 04:07:39;;;;;;;;;;;18.40;99.90;;;;;;5059384;28;20057;-64
2023/09/29 04:10:09;;;;;;;;;;;18.40;99.90;;;;;;5065283;28;20043;-68
2023/09/29 04:12:40;;;;;;;;;;;18.30;99.90;;;;;;5070089;28;19977;-66
2023/09/29 04:15:09;;;;;;;;;;;18.30;99.90;;;;;;5072642;28;19992;-66
2023/09/29 04:17:38;;;;;;;;;;;18.20;99.90;;;;;;5074547;28;20093;-67
2023/09/29 04:20:06;;;;;;;;;;;18.30;99.90;;;;;;5078566;28;19978;-67
2023/09/29 04:22:34;;;;;;;;;;;18.20;99.90;;;;;;5076840;28;19970;-65
2023/09/29 04:25:03;;;;;;;;;;;18.10;99.90;;;;;;5071930;28;19966;-68
2023/09/29 04:27:30;;;;;;;;;;;18.10;99.90;;;;;;5069773;28;19974;-64
2023/09/29 04:30:00;;;;;;;;;;;18.00;99.90;;;;;;5071902;28;20645;-65
2023/09/29 04:32:27;;;;;;;;;;;17.90;99.90;;;;;;5067860;28;19970;-66
2023/09/29 04:34:55;;;;;;;;;;;17.80;99.90;;;;;;5068402;28;19970;-65
2023/09/29 04:37:23;;;;;;;;;;;17.80;99.90;;;;;;5059168;28;20023;-65
2023/09/29 04:39:51;;;;;;;;;;;17.70;99.90;;;;;;5070860;28;19966;-65
2023/09/29 04:42:19;;;;;;;;;;;17.70;99.90;;;;;;5067972;28;20478;-68
2023/09/29 04:44:47;;;;;;;;;;;17.60;99.90;;;;;;5071321;28;19966;-65
2023/09/29 04:47:16;;;;;;;;;;;17.60;99.90;;;;;;5062403;28;19962;-66
2023/09/29 04:49:44;;;;;;;;;;;17.60;99.90;;;;;;5075268;28;20015;-65
2023/09/29 04:52:11;;;;;;;;;;;17.60;99.90;;;;;;5068622;28;19985;-65
2023/09/29 04:54:39;;;;;;;;;;;17.60;99.90;;;;;;5073639;28;19970;-65
2023/09/29 04:57:07;;;;;;;;;;;17.70;99.90;;;;;;5066096;28;20006;-66
2023/09/29 04:59:35;;;;;;;;;;;17.70;99.90;;;;;;5065651;28;20071;-67
2023/09/29 05:02:02;;;;;;;;;;;17.70;99.90;;;;;;5060213;28;19974;-65
2023/09/29 05:04:32;;;;;;;;;;;17.80;99.90;;;;;;5062336;28;19970;-65
2023/09/29 05:06:59;;;;;;;;;;;17.80;99.90;;;;;;5065152;28;19967;-69
2023/09/29 05:09:27;;;;;;;;;;;17.80;99.90;;;;;;5065844;28;19974;-66
2023/09/29 05:11:55;;;;;;;;;;;17.80;99.90;;;;;;5070684;28;19974;-64
2023/09/29 05:14:24;;;;;;;;;;;17.80;99.90;;;;;;5071332;28;19967;-65
2023/09/29 05:16:53;;;;;;;;;;;17.70;99.90;;;;;;5071323;28;20487;-64
2023/09/29 05:19:21;;;;;;;;;;;17.60;99.90;;;;;;5071969;28;20354;-65
2023/09/29 05:21:50;;;;;;;;;;;17.70;99.90;;;;;;5066486;28;21353;-67
2023/09/29 05:24:18;;;;;;;;;;;17.70;99.90;;;;;;5069188;28;19966;-64
2023/09/29 05:26:45;;;;;;;;;;;17.70;99.90;;;;;;5073903;28;20024;-65
2023/09/29 05:29:13;;;;;;;;;;;17.70;99.90;;;;;;5059225;28;20403;-67
2023/09/29 05:31:41;;;;;;;;;;;17.70;99.90;;;;;;5060512;28;19994;-66
2023/09/29 05:34:09;;;;;;;;;;;17.70;99.90;;;;;;5066243;28;20464;-65
2023/09/29 05:36:37;;;;;;;;;;;17.70;99.90;;;;;;5065741;28;19974;-65
2023/09/29 05:39:06;;;;;;;;;;;17.80;99.90;;;;;;5064849;28;20844;-67
2023/09/29 05:41:34;;;;;;;;;;;17.80;99.90;;;;;;5071746;28;20310;-65
2023/09/29 05:44:01;;;;;;;;;;;17.80;99.90;;;;;;5090614;28;19973;-65
2023/09/29 05:46:29;;;;;;;;;;;17.80;99.90;;;;;;5065257;28;20351;-67
2023/09/29 05:48:57;;;;;;;;;;;17.80;99.90;;;;;;5059197;28;19963;-65
2023/09/29 05:51:25;;;;;;;;;;;17.80;99.90;;;;;;5069586;28;20382;-64
2023/09/29 05:53:53;;;;;;;;;;;17.80;99.90;;;;;;5069844;28;20020;-65
2023/09/29 05:56:22;;;;;;;;;;;17.90;99.90;;;;;;5055139;28;19970;-64
2023/09/29 05:58:50;;;;;;;;;;;17.90;99.90;;;;;;5050363;28;19967;-65
2023/09/29 06:01:18;;;;;;;;;;;17.90;99.90;;;;;;5050533;28;20441;-67
2023/09/29 06:03:46;;;;;;;;;;;18.00;99.90;;;;;;5069231;28;20016;-65
2023/09/29 06:06:14;;;;;;;;;;;18.00;99.90;;;;;;5064604;28;19970;-66
2023/09/29 06:08:43;;;;;;;;;;;18.00;99.90;;;;;;5050397;28;19970;-65
2023/09/29 06:11:23;;;;;;;;;;;18.10;99.90;;;;;;5052076;28;20016;-64
2023/09/29 06:13:51;;;;;;;;;;;18.00;99.90;;;;;;5076266;28;19977;-65
2023/09/29 06:16:19;;;;;;;;;;;18.20;99.90;;;;;;5053930;28;20410;-64
2023/09/29 06:18:47;;;;;;;;;;;18.50;99.90;;;;;;5070338;28;20041;-65
2023/09/29 06:21:16;;;;;;;;;;;18.70;99.90;;;;;;5067343;28;20346;-67
2023/09/29 06:23:43;;;;;;;;;;;18.90;99.90;;;;;;5068435;28;19970;-66
2023/09/29 06:26:11;;;;;;;;;;;18.90;99.90;;;;;;5054503;28;20384;-68
2023/09/29 06:28:41;;;;;;;;;;;18.80;99.90;;;;;;5055957;28;19981;-65
2023/09/29 06:31:08;;;;;;;;;;;18.80;99.90;;;;;;5054357;28;19969;-67
2023/09/29 06:33:36;;;;;;;;;;;18.70;99.90;;;;;;5053804;28;20009;-67
2023/09/29 06:36:04;;;;;;;;;;;18.70;99.90;;;;;;5053935;28;19962;-67
2023/09/29 06:38:32;;;;;;;;;;;18.70;99.90;;;;;;5053900;28;20433;-66
2023/09/29 06:41:00;;;;;;;;;;;18.70;99.90;;;;;;5055602;28;20012;-66
2023/09/29 06:43:28;;;;;;;;;;;18.70;99.90;;;;;;5081660;28;20359;-66
2023/09/29 06:45:58;;;;;;;;;;;18.70;99.90;;;;;;5079324;28;19989;-66
2023/09/29 06:48:29;;;;;;;;;;;18.70;99.90;;;;;;5053676;28;19969;-67
2023/09/29 06:50:59;;;;;;;;;;;18.70;99.90;;;;;;5053714;28;20338;-66
2023/09/29 06:53:29;;;;;;;;;;;18.60;99.90;;;;;;5054075;28;20425;-67
2023/09/29 06:55:57;;;;;;;;;;;18.70;99.90;;;;;;5061268;28;20400;-68
2023/09/29 06:58:25;;;;;;;;;;;18.70;99.90;;;;;;5053444;28;19959;-65
2023/09/29 07:00:53;;;;;;;;;;;18.70;99.90;;;;;;5053401;28;20343;-67
2023/09/29 07:03:23;;;;;;;;;;;18.70;99.90;;;;;;5053543;28;19970;-67
2023/09/29 07:05:51;;;;;;;;;;;18.70;99.90;;;;;;5053098;28;20009;-66
2023/09/29 07:08:19;;;;;;;;;;;18.70;99.90;;;;;;5053228;28;19963;-66
2023/09/29 07:10:47;;;;;;;;;;;18.70;99.90;;;;;;5059863;28;19958;-67
2023/09/29 07:13:16;;;;;;;;;;;18.80;99.90;;;;;;5089745;28;20455;-67
2023/09/29 07:15:45;;;;;;;;;;;18.90;99.90;;;;;;5083700;28;19959;-66
2023/09/29 07:18:13;;;;;;;;;;;18.90;99.90;;;;;;5059799;28;20467;-66
2023/09/29 07:20:43;;;;;;;;;;;18.90;99.90;;;;;;5053412;28;19988;-66
2023/09/29 07:23:10;;;;;;;;;;;19.00;99.90;;;;;;5057385;28;19994;-66
2023/09/29 07:25:39;;;;;;;;;;;18.90;99.90;;;;;;5072333;28;19963;-65
2023/09/29 07:28:08;;;;;;;;;;;18.90;99.90;;;;;;5060717;28;20347;-66
2023/09/29 07:30:36;;;;;;;;;;;18.80;99.90;;;;;;5053049;28;20379;-67
2023/09/29 07:33:05;;;;;;;;;;;18.80;99.90;;;;;;5052347;28;19962;-67
2023/09/29 07:35:33;;;;;;;;;;;18.90;99.90;;;;;;5068428;28;20444;-67
2023/09/29 07:38:02;;;;;;;;;;;19.10;99.90;;;;;;5053284;28;19963;-67
2023/09/29 07:40:30;;;;;;;;;;;19.30;99.90;;;;;;5052716;28;19970;-67
2023/09/29 07:42:58;;;;;;;;;;;19.40;99.90;;;;;;5085576;28;20497;-66
2023/09/29 07:45:26;;;;;;;;;;;19.50;99.90;;;;;;5086065;28;20448;-67
2023/09/29 07:47:54;;;;;;;;;;;19.50;99.90;;;;;;5053983;28;19970;-65
2023/09/29 07:50:23;;;;;;;;;;;19.50;99.90;;;;;;5052695;28;19959;-67
2023/09/29 07:52:50;;;;;;;;;;;19.40;99.90;;;;;;5052349;28;19963;-66
2023/09/29 07:55:19;;;;;;;;;;;19.50;99.90;;;;;;5053918;28;19958;-67
2023/09/29 07:57:47;;;;;;;;;;;19.80;99.90;;;;;;5052452;28;19958;-67
2023/09/29 08:00:16;;;;;;;;;;;20.10;99.90;;;;;;5052482;28;20421;-67
2023/09/29 08:02:45;;;;;;;;;;;20.20;99.90;;;;;;5069366;28;20141;-66
2023/09/29 08:05:13;;;;;;;;;;;20.20;99.90;;;;;;5052080;28;19962;-67
2023/09/29 08:07:41;;;;;;;;;;;20.10;99.90;;;;;;5052482;28;20046;-68
2023/09/29 08:10:10;;;;;;;;;;;20.10;99.90;;;;;;5052282;28;19962;-67
2023/09/29 08:12:39;;;;;;;;;;;20.00;99.90;;;;;;5079659;28;20378;-68
2023/09/29 08:15:10;;;;;;;;;;;20.00;99.90;;;;;;5080306;28;20321;-68
2023/09/29 08:17:39;;;;;;;;;;;20.00;99.90;;;;;;5056645;28;20013;-67
2023/09/29 08:20:08;;;;;;;;;;;20.10;99.90;;;;;;5052011;28;19963;-68
2023/09/29 08:22:35;;;;;;;;;;;20.20;99.90;;;;;;5052191;28;19966;-69
2023/09/29 08:25:08;;;;;;;;;;;20.20;99.90;;;;;;5052468;28;19958;-67
2023/09/29 08:27:36;;;;;;;;;;;20.40;99.90;;;;;;5060467;28;20404;-68
2023/09/29 08:30:06;;;;;;;;;;;20.60;99.90;;;;;;5052109;28;20440;-67
2023/09/29 08:32:36;;;;;;;;;;;20.80;99.90;;;;;;5052851;28;20012;-68
2023/09/29 08:35:04;;;;;;;;;;;20.90;99.90;;;;;;5059814;28;19962;-68
2023/09/29 08:37:32;;;;;;;;;;;20.90;99.90;;;;;;5051665;28;20015;-68
2023/09/29 08:40:00;;;;;;;;;;;21.10;99.90;;;;;;5051786;28;19963;-67
2023/09/29 08:42:30;;;;;;;;;;;21.50;99.90;;;;;;5071528;28;20073;-68
2023/09/29 08:44:59;;;;;;;;;;;21.70;99.90;;;;;;5070754;28;20009;-67
2023/09/29 08:47:30;;;;;;;;;;;22.10;99.90;;;;;;5057500;28;20310;-68
2023/09/29 08:49:58;;;;;;;;;;;22.30;99.90;;;;;;5050773;28;19963;-68
2023/09/29 08:52:28;;;;;;;;;;;22.50;99.90;;;;;;5059949;28;19982;-68
2023/09/29 08:54:56;;;;;;;;;;;22.60;99.90;;;;;;5068402;28;19969;-67
2023/09/29 08:57:25;;;;;;;;;;;22.50;99.90;;;;;;5058000;28;19958;-68
2023/09/29 08:59:53;;;;;;;;;;;22.70;99.90;;;;;;5051231;28;19971;-68
2023/09/29 09:02:21;;;;;;;;;;;22.70;99.90;;;;;;5051402;28;20404;-68
2023/09/29 09:04:50;;;;;;;;;;;22.90;99.90;;;;;;5050903;28;20372;-67
2023/09/29 09:07:19;;;;;;;;;;;23.10;99.90;;;;;;5055427;28;20008;-68
2023/09/29 09:09:48;;;;;;;;;;;23.60;99.90;;;;;;5054459;28;20441;-66
2023/09/29 09:12:16;;;;;;;;;;;23.60;99.90;;;;;;5067537;28;19967;-68
2023/09/29 09:14:44;;;;;;;;;;;23.90;99.90;;;;;;5083196;28;19958;-68
2023/09/29 09:17:12;;;;;;;;;;;23.90;99.90;;;;;;5062473;28;19958;-69
2023/09/29 09:19:42;;;;;;;;;;;24.10;99.90;;;;;;5055866;28;19974;-68
2023/09/29 09:22:16;;;;;;;;;;;24.00;99.90;;;;;;5050993;28;19963;-68
2023/09/29 09:24:48;;;;;;;;;;;24.40;99.90;;;;;;5057653;28;20362;-68
2023/09/29 09:27:16;;;;;;;;;;;24.60;99.90;;;;;;5059351;28;20012;-68
2023/09/29 09:29:44;;;;;;;;;;;24.40;99.90;;;;;;5051167;28;20057;-68
2023/09/29 09:32:12;;;;;;;;;;;24.30;99.90;;;;;;5050888;28;19958;-68
2023/09/29 09:34:41;;;;;;;;;;;24.40;99.90;;;;;;5050776;28;19962;-68
2023/09/29 09:37:11;;;;;;;;;;;24.50;99.90;;;;;;5050728;28;19993;-68
2023/09/29 09:39:42;;;;;;;;;;;24.60;99.90;;;;;;5063619;28;19966;-68
2023/09/29 09:42:12;;;;;;;;;;;24.70;99.90;;;;;;5066151;28;19970;-68
2023/09/29 09:44:41;;;;;;;;;;;24.80;99.90;;;;;;5075400;28;20053;-67
2023/09/29 09:47:14;;;;;;;;;;;24.90;99.90;;;;;;5070628;28;19963;-68
2023/09/29 09:49:46;;;;;;;;;;;25.10;99.90;;;;;;5070890;28;19969;-67
2023/09/29 09:52:17;;;;;;;;;;;25.20;99.90;;;;;;5071330;28;19958;-68
2023/09/29 09:54:49;;;;;;;;;;;25.10;99.90;;;;;;5069922;28;19959;-67
2023/09/29 09:57:20;;;;;;;;;;;24.70;99.90;;;;;;5071316;28;20408;-68
2023/09/29 09:59:48;;;;;;;;;;;24.50;99.90;;;;;;5070994;28;20485;-67
2023/09/29 10:02:18;;;;;;;;;;;24.70;99.90;;;;;;5063914;28;19958;-68
2023/09/29 10:04:47;;;;;;;;;;;24.90;99.90;;;;;;5074685;28;19966;-68
2023/09/29 10:07:15;;;;;;;;;;;25.30;99.90;;;;;;5074351;28;19959;-68
2023/09/29 10:09:44;;;;;;;;;;;25.30;99.90;;;;;;5074330;28;19966;-68
2023/09/29 10:12:24;;;;;;;;;;;25.40;99.90;;;;;;5079426;28;19966;-68
2023/09/29 10:14:53;;;;;;;;;;;25.30;99.90;;;;;;5074130;28;19984;-68
2023/09/29 10:17:21;;;;;;;;;;;25.20;99.90;;;;;;5066697;28;19958;-68
2023/09/29 10:19:53;;;;;;;;;;;24.80;99.90;;;;;;5074574;28;19965;-68
2023/09/29 10:22:24;;;;;;;;;;;24.90;99.90;;;;;;5065963;28;19959;-68
2023/09/29 10:24:56;;;;;;;;;;;24.90;99.90;;;;;;5074190;28;19970;-68
2023/09/29 10:27:33;;;;;;;;;;;25.00;99.90;;;;;;5066515;28;19963;-67
2023/09/29 10:30:17;;;;;;;;;;;24.90;99.90;;;;;;5074140;28;19969;-67
2023/09/29 10:32:46;;;;;;;;;;;25.00;99.90;;;;;;5074326;28;19958;-68
2023/09/29 10:35:18;;;;;;;;;;;24.90;99.90;;;;;;5073542;28;19969;-68
2023/09/29 10:37:49;;;;;;;;;;;25.00;99.90;;;;;;5073403;28;19970;-68
2023/09/29 10:40:21;;;;;;;;;;;25.10;99.90;;;;;;5073956;28;19962;-68
2023/09/29 10:42:54;;;;;;;;;;;25.30;99.90;;;;;;5079591;28;19963;-68
2023/09/29 10:45:28;;;;;;;;;;;25.50;99.90;;;;;;5065472;28;19958;-68
2023/09/29 10:48:00;;;;;;;;;;;25.70;99.90;;;;;;5074059;28;19962;-68
2023/09/29 10:50:29;;;;;;;;;;;26.10;99.90;;;;;;5066856;28;19962;-68
2023/09/29 10:52:57;;;;;;;;;;;26.40;99.90;;;;;;5073549;28;19966;-67
2023/09/29 10:55:25;;;;;;;;;;;26.80;99.90;;;;;;5073692;28;19966;-68
2023/09/29 10:57:58;;;;;;;;;;;27.20;99.90;;;;;;5073775;28;20494;-67
2023/09/29 11:00:26;;;;;;;;;;;27.40;99.90;;;;;;5065945;28;19959;-67
2023/09/29 11:02:53;;;;;;;;;;;27.40;99.90;;;;;;5073824;28;19963;-67
2023/09/29 11:05:21;;;;;;;;;;;27.30;99.90;;;;;;5073068;28;20016;-68
2023/09/29 11:07:50;;;;;;;;;;;27.40;99.90;;;;;;5073255;28;20007;-68
2023/09/29 11:10:18;;;;;;;;;;;27.10;99.90;;;;;;5073328;28;19985;-68
2023/09/29 11:12:47;;;;;;;;;;;27.10;99.90;;;;;;5078786;28;19962;-68
2023/09/29 11:15:16;;;;;;;;;;;27.10;99.90;;;;;;5072655;28;19966;-68
2023/09/29 11:17:45;;;;;;;;;;;27.60;99.90;;;;;;5073475;28;20040;-68
2023/09/29 11:20:25;;;;;;;;;;;28.00;99.90;;;;;;5073253;28;19973;-68
2023/09/29 11:23:02;;;;;;;;;;;28.40;99.90;;;;;;5072838;28;20193;-69
2023/09/29 11:25:31;;;;;;;;;;;28.70;99.90;;;;;;5065532;28;19981;-68
2023/09/29 11:27:59;;;;;;;;;;;29.20;99.90;;;;;;5073260;28;19970;-69
2023/09/29 11:30:29;;;;;;;;;;;29.20;99.90;;;;;;5073187;28;19964;-68
2023/09/29 11:32:56;;;;;;;;;;;29.50;99.90;;;;;;5073176;28;19963;-68
2023/09/29 11:35:25;;;;;;;;;;;29.50;99.90;;;;;;5072555;28;19959;-68
2023/09/29 11:37:53;;;;;;;;;;;29.20;99.90;;;;;;5072445;28;19966;-69
2023/09/29 11:40:20;;;;;;;;;;;28.90;99.90;;;;;;5072925;28;19988;-68
2023/09/29 11:42:49;;;;;;;;;;;29.00;99.90;;;;;;5079258;28;19970;-68
2023/09/29 11:45:17;;;;;;;;;;;29.00;99.90;;;;;;5072133;28;20445;-68
2023/09/29 11:47:46;;;;;;;;;;;29.30;99.90;;;;;;5072864;28;19958;-68
2023/09/29 11:50:14;;;;;;;;;;;29.70;99.90;;;;;;5072656;28;20043;-68
2023/09/29 11:52:42;;;;;;;;;;;29.90;99.90;;;;;;5072725;28;20008;-69
2023/09/29 11:55:11;;;;;;;;;;;29.80;99.90;;;;;;5071858;28;20027;-67
2023/09/29 11:57:40;;;;;;;;;;;29.60;99.90;;;;;;5072706;28;19964;-68
2023/09/29 12:00:09;;;;;;;;;;;29.50;99.90;;;;;;5072491;28;19969;-69
2023/09/29 12:02:37;;;;;;;;;;;29.30;99.90;;;;;;5072527;28;20466;-68
2023/09/29 12:05:07;;;;;;;;;;;29.00;99.90;;;;;;5071940;28;19966;-69
2023/09/29 12:07:36;;;;;;;;;;;28.40;99.90;;;;;;5072258;28;19958;-69
2023/09/29 12:10:04;;;;;;;;;;;27.80;99.90;;;;;;5072028;28;19971;-68
2023/09/29 12:12:32;;;;;;;;;;;27.40;99.90;;;;;;5078190;28;20421;-68
2023/09/29 12:15:00;;;;;;;;;;;27.10;99.90;;;;;;5072072;28;20017;-68
2023/09/29 12:17:28;;;;;;;;;;;26.60;99.90;;;;;;5070472;28;19962;-68
2023/09/29 12:19:56;;;;;;;;;;;26.30;99.90;;;;;;5072224;28;19963;-67
2023/09/29 12:22:25;;;;;;;;;;;25.90;99.90;;;;;;5072197;28;20047;-67
2023/09/29 12:24:53;;;;;;;;;;;25.80;99.90;;;;;;5071527;28;20033;-68
2023/09/29 12:27:21;;;;;;;;;;;25.50;99.90;;;;;;5071361;28;20339;-68
2023/09/29 12:29:48;;;;;;;;;;;25.40;99.90;;;;;;5071665;28;19959;-68
2023/09/29 12:32:16;;;;;;;;;;;25.40;99.90;;;;;;5071948;28;20049;-68
2023/09/29 12:34:44;;;;;;;;;;;25.40;99.90;;;;;;5072086;28;19962;-67
2023/09/29 12:37:12;;;;;;;;;;;25.20;99.90;;;;;;5071415;28;19967;-68
2023/09/29 12:39:41;;;;;;;;;;;25.00;99.90;;;;;;5071970;28;20391;-67
2023/09/29 12:42:09;;;;;;;;;;;24.80;99.90;;;;;;5078558;28;20023;-66
2023/09/29 12:44:37;;;;;;;;;;;24.70;99.90;;;;;;5071446;28;19962;-67
2023/09/29 12:47:05;;;;;;;;;;;24.50;99.90;;;;;;5066347;28;19970;-66
2023/09/29 12:49:33;;;;;;;;;;;24.40;99.90;;;;;;5063448;28;20028;-67
2023/09/29 12:52:01;;;;;;;;;;;24.30;99.90;;;;;;5071688;28;19985;-67
2023/09/29 12:54:31;;;;;;;;;;;24.10;99.90;;;;;;5071746;28;19994;-67
2023/09/29 12:57:00;;;;;;;;;;;24.00;99.90;;;;;;5071579;28;20331;-67
2023/09/29 12:59:30;;;;;;;;;;;23.80;99.90;;;;;;5071324;28;19965;-67
2023/09/29 13:01:58;;;;;;;;;;;23.60;99.90;;;;;;5071204;28;20008;-67
2023/09/29 13:04:29;;;;;;;;;;;23.30;99.90;;;;;;5071020;28;19966;-67
2023/09/29 13:06:57;;;;;;;;;;;23.10;99.90;;;;;;5071212;28;20433;-67
2023/09/29 13:09:25;;;;;;;;;;;23.00;99.90;;;;;;5071216;28;20020;-67
2023/09/29 13:11:53;;;;;;;;;;;23.00;99.90;;;;;;5076235;28;19973;-68
2023/09/29 13:14:22;;;;;;;;;;;22.80;99.90;;;;;;5072847;28;19969;-67
2023/09/29 13:16:50;;;;;;;;;;;22.80;99.90;;;;;;5071141;28;19965;-67
2023/09/29 13:19:19;;;;;;;;;;;22.70;99.90;;;;;;5066881;28;20343;-66
2023/09/29 13:21:50;;;;;;;;;;;22.70;99.90;;;;;;5071464;28;20333;-67
2023/09/29 13:24:18;;;;;;;;;;;22.60;99.90;;;;;;5070806;28;19963;-66
2023/09/29 13:26:47;;;;;;;;;;;22.60;99.90;;;;;;5070944;28;19964;-67
2023/09/29 13:29:15;;;;;;;;;;;22.60;99.90;;;;;;5071008;28;20441;-67
2023/09/29 13:31:44;;;;;;;;;;;22.50;99.90;;;;;;5071065;28;19959;-66
2023/09/29 13:34:12;;;;;;;;;;;22.70;99.90;;;;;;5071328;28;19963;-66
2023/09/29 13:36:40;;;;;;;;;;;22.80;99.90;;;;;;5071851;28;19958;-67
2023/09/29 13:39:09;;;;;;;;;;;23.00;99.90;;;;;;5071363;28;19965;-66
2023/09/29 13:41:37;;;;;;;;;;;23.10;99.90;;;;;;5070027;28;20051;-66
2023/09/29 13:44:05;;;;;;;;;;;23.00;99.90;;;;;;5079430;28;20107;-66
2023/09/29 13:46:33;;;;;;;;;;;23.00;99.90;;;;;;5074828;28;19962;-67
2023/09/29 13:49:16;;;;;;;;;;;22.90;99.90;;;;;;5074923;28;19965;-66
2023/09/29 13:51:46;;;;;;;;;;;22.80;99.90;;;;;;5075045;28;20019;-67
2023/09/29 13:54:13;;;;;;;;;;;22.70;99.90;;;;;;5071587;28;20298;-66
2023/09/29 13:56:41;;;;;;;;;;;22.70;99.90;;;;;;5074630;28;20392;-67
2023/09/29 13:59:09;;;;;;;;;;;22.70;99.90;;;;;;5074696;28;19962;-67
2023/09/29 14:01:37;;;;;;;;;;;22.70;99.90;;;;;;5074369;28;20019;-68
2023/09/29 14:04:06;;;;;;;;;;;22.70;99.90;;;;;;5074716;28;19966;-67
2023/09/29 14:06:36;;;;;;;;;;;22.60;99.90;;;;;;5074374;28;20020;-67
2023/09/29 14:09:04;;;;;;;;;;;22.60;99.90;;;;;;5072506;28;19959;-67
2023/09/29 14:11:44;;;;;;;;;;;22.50;99.90;;;;;;5070886;28;19958;-68
2023/09/29 14:14:12;;;;;;;;;;;22.50;99.90;;;;;;5078279;28;19985;-68
2023/09/29 14:16:40;;;;;;;;;;;22.50;99.90;;;;;;5074016;28;19963;-69
2023/09/29 14:19:08;;;;;;;;;;;22.50;99.90;;;;;;5074528;28;19970;-68
2023/09/29 14:21:37;;;;;;;;;;;22.50;99.90;;;;;;5074383;28;19971;-67
2023/09/29 14:24:05;;;;;;;;;;;22.60;99.90;;;;;;5074296;28;19970;-67
2023/09/29 14:26:33;;;;;;;;;;;22.70;99.90;;;;;;5073412;28;19969;-67